createdAt,value
2017-07-04T00:00:44.328Z,69.50
2017-07-04T00:03:14.136Z,69.90
2017-07-04T00:05:43.893Z,69.00
2017-07-04T00:08:13.613Z,69.80
2017-07-04T00:10:43.556Z,69.70
2017-07-04T00:13:14.467Z,69.80
2017-07-04T00:15:44.654Z,70.10
2017-07-04T00:18:15.606Z,70.20
2017-07-04T00:20:45.700Z,70.20
2017-07-04T00:23:15.403Z,70.40
2017-07-04T00:25:46.447Z,70.20
2017-07-04T00:28:16.484Z,70.70
2017-07-04T00:30:46.428Z,70.90
2017-07-04T00:33:16.931Z,70.60
2017-07-04T00:35:46.798Z,70.60
2017-07-04T00:38:16.801Z,70.50
2017-07-04T00:40:46.994Z,69.50
2017-07-04T00:43:17.047Z,70.00
2017-07-04T00:45:46.923Z,69.70
2017-07-04T00:48:22.495Z,70.50
2017-07-04T00:50:52.459Z,69.80
2017-07-04T00:53:23.281Z,70.00
2017-07-04T00:55:53.058Z,69.90
2017-07-04T00:58:23.055Z,70.10
2017-07-04T01:00:52.960Z,70.60
2017-07-04T01:03:23.314Z,70.40
2017-07-04T01:05:53.075Z,70.20
2017-07-04T01:08:23.110Z,70.50
2017-07-04T01:10:54.036Z,70.60
2017-07-04T01:13:24.506Z,71.40
2017-07-04T01:15:54.912Z,70.70
2017-07-04T01:18:25.736Z,70.30
2017-07-04T01:20:55.758Z,70.20
2017-07-04T01:23:26.497Z,70.30
2017-07-04T01:25:56.939Z,70.00
2017-07-04T01:28:26.740Z,69.90
2017-07-04T01:30:57.138Z,69.80
2017-07-04T01:33:27.604Z,69.80
2017-07-04T01:35:57.334Z,70.00
2017-07-04T01:38:27.187Z,69.50
2017-07-04T01:40:57.316Z,69.50
2017-07-04T01:43:27.495Z,69.80
2017-07-04T01:45:57.635Z,70.20
2017-07-04T01:48:27.708Z,69.50
2017-07-04T01:50:57.856Z,69.20
2017-07-04T01:53:27.789Z,69.50
2017-07-04T01:55:57.644Z,69.60
2017-07-04T01:58:27.587Z,69.70
2017-07-04T02:00:57.539Z,70.60
2017-07-04T02:03:28.057Z,70.30
2017-07-04T02:05:57.823Z,70.40
2017-07-04T02:08:27.562Z,70.60
2017-07-04T02:10:57.655Z,71.30
2017-07-04T02:13:27.675Z,71.10
2017-07-04T02:15:58.052Z,71.20
2017-07-04T02:18:28.104Z,71.10
2017-07-04T02:20:58.141Z,71.40
2017-07-04T02:23:28.151Z,71.10
2017-07-04T02:25:58.164Z,70.90
2017-07-04T02:28:28.576Z,70.80
2017-07-04T02:30:59.311Z,71.40
2017-07-04T02:33:29.886Z,71.90
2017-07-04T02:35:59.908Z,71.80
2017-07-04T02:38:29.842Z,71.60
2017-07-04T02:41:00.641Z,71.90
2017-07-04T02:43:30.758Z,71.90
2017-07-04T02:46:00.982Z,71.30
2017-07-04T02:48:30.954Z,71.40
2017-07-04T02:51:00.749Z,71.50
2017-07-04T02:53:30.256Z,71.20
2017-07-04T02:55:59.787Z,71.30
2017-07-04T02:58:29.580Z,71.70
2017-07-04T03:00:59.109Z,71.70
2017-07-04T03:03:28.642Z,72.80
2017-07-04T03:05:58.147Z,72.10
2017-07-04T03:08:27.683Z,72.10
2017-07-04T03:10:57.260Z,72.00
2017-07-04T03:13:27.089Z,71.70
2017-07-04T03:15:57.224Z,71.20
2017-07-04T03:18:27.088Z,71.20
2017-07-04T03:20:57.808Z,71.30
2017-07-04T03:23:28.329Z,71.50
2017-07-04T03:25:58.499Z,71.50
2017-07-04T03:28:28.313Z,71.60
2017-07-04T03:30:57.891Z,71.70
2017-07-04T03:33:27.405Z,71.50
2017-07-04T03:35:56.984Z,70.90
2017-07-04T03:38:26.497Z,71.20
2017-07-04T03:40:57.113Z,71.50
2017-07-04T03:43:27.216Z,71.10
2017-07-04T03:45:57.208Z,70.90
2017-07-04T03:48:26.749Z,71.00
2017-07-04T03:50:56.275Z,70.70
2017-07-04T03:53:25.784Z,71.20
2017-07-04T03:55:55.297Z,71.10
2017-07-04T03:58:25.719Z,71.10
2017-07-04T04:00:56.575Z,70.50
2017-07-04T04:03:26.323Z,70.40
2017-07-04T04:05:57.059Z,70.10
2017-07-04T04:08:27.331Z,70.10
2017-07-04T04:10:57.119Z,69.40
2017-07-04T04:13:27.963Z,69.60
2017-07-04T04:15:57.968Z,69.50
2017-07-04T04:18:27.499Z,69.30
2017-07-04T04:20:57.654Z,68.90
2017-07-04T04:23:27.779Z,69.50
2017-07-04T04:25:57.640Z,68.40
2017-07-04T04:28:28.170Z,68.30
2017-07-04T04:30:59.197Z,68.90
2017-07-04T04:33:29.312Z,68.80
2017-07-04T04:35:59.375Z,68.70
2017-07-04T04:38:29.295Z,68.40
2017-07-04T04:40:59.630Z,68.50
2017-07-04T04:43:29.445Z,67.50
2017-07-04T04:45:58.977Z,68.20
2017-07-04T04:48:28.957Z,68.30
2017-07-04T04:50:58.606Z,68.20
2017-07-04T04:53:28.552Z,68.30
2017-07-04T04:55:58.071Z,68.10
2017-07-04T04:58:27.600Z,67.70
2017-07-04T05:00:57.352Z,67.30
2017-07-04T05:03:27.255Z,67.60
2017-07-04T05:05:57.154Z,67.50
2017-07-04T05:08:26.924Z,67.30
2017-07-04T05:10:56.570Z,66.50
2017-07-04T05:13:26.070Z,65.80
2017-07-04T05:15:55.575Z,67.10
2017-07-04T05:18:25.128Z,66.80
2017-07-04T05:20:55.269Z,66.80
2017-07-04T05:23:25.463Z,67.40
2017-07-04T05:25:55.428Z,66.80
2017-07-04T05:28:24.979Z,66.90
2017-07-04T05:30:54.614Z,66.80
2017-07-04T05:33:24.409Z,66.40
2017-07-04T05:35:53.994Z,67.10
2017-07-04T05:38:23.581Z,66.40
2017-07-04T05:40:53.121Z,67.50
2017-07-04T05:43:22.795Z,67.10
2017-07-04T05:45:52.340Z,68.00
2017-07-04T05:48:21.933Z,67.60
2017-07-04T05:50:51.487Z,67.80
2017-07-04T05:53:21.452Z,67.00
2017-07-04T05:55:53.607Z,68.00
2017-07-04T05:58:26.423Z,67.60
2017-07-04T06:00:56.191Z,67.00
2017-07-04T06:03:25.906Z,66.80
2017-07-04T06:05:55.748Z,67.20
2017-07-04T06:08:25.391Z,65.70
2017-07-04T06:10:55.094Z,65.50
2017-07-04T06:13:24.850Z,66.80
2017-07-04T06:15:55.573Z,66.00
2017-07-04T06:18:25.464Z,66.00
2017-07-04T06:20:54.983Z,65.80
2017-07-04T06:23:24.623Z,65.30
2017-07-04T06:25:54.143Z,64.80
2017-07-04T06:28:23.652Z,64.30
2017-07-04T06:30:53.207Z,63.50
2017-07-04T06:33:22.857Z,63.70
2017-07-04T06:35:54.012Z,64.50
2017-07-04T06:38:24.864Z,64.50
2017-07-04T06:40:54.702Z,64.50
2017-07-04T06:43:25.810Z,64.40
2017-07-04T06:45:55.652Z,64.40
2017-07-04T06:48:25.719Z,64.90
2017-07-04T06:50:55.407Z,63.80
2017-07-04T06:53:25.216Z,64.00
2017-07-04T06:55:54.967Z,63.40
2017-07-04T06:58:25.442Z,64.00
2017-07-04T07:00:55.399Z,63.80
2017-07-04T07:03:25.529Z,62.30
2017-07-04T07:05:55.328Z,61.60
2017-07-04T07:08:24.872Z,61.20
2017-07-04T07:10:54.428Z,60.50
2017-07-04T07:13:24.122Z,60.80
2017-07-04T07:15:53.719Z,58.80
2017-07-04T07:18:25.567Z,54.80
2017-07-04T07:20:56.747Z,50.40
2017-07-04T07:23:26.803Z,44.60
2017-07-04T07:25:56.423Z,41.60
2017-07-04T07:28:26.108Z,40.60
2017-07-04T07:30:56.092Z,39.20
2017-07-04T07:33:25.711Z,37.70
2017-07-04T07:35:55.295Z,37.20
2017-07-04T07:38:24.946Z,33.30
2017-07-04T07:40:54.515Z,32.90
2017-07-04T07:43:24.332Z,34.20
2017-07-04T07:45:54.011Z,36.20
2017-07-04T07:48:24.355Z,35.20
2017-07-04T07:50:54.220Z,34.40
2017-07-04T07:53:24.029Z,36.30
2017-07-04T07:55:53.805Z,35.00
2017-07-04T07:58:23.437Z,31.50
2017-07-04T08:00:53.247Z,33.60
2017-07-04T08:03:23.415Z,32.20
2017-07-04T08:05:53.014Z,32.30
2017-07-04T08:08:22.577Z,33.50
2017-07-04T08:10:52.219Z,33.90
2017-07-04T08:13:22.060Z,33.60
2017-07-04T08:15:51.674Z,33.30
2017-07-04T08:18:21.399Z,34.30
2017-07-04T08:20:51.384Z,33.40
2017-07-04T08:23:21.267Z,36.60
2017-07-04T08:25:51.240Z,42.00
2017-07-04T08:28:21.192Z,38.90
2017-07-04T08:30:50.829Z,42.80
2017-07-04T08:33:21.035Z,43.50
2017-07-04T08:35:51.019Z,41.60
2017-07-04T08:38:20.627Z,39.50
2017-07-04T08:40:50.293Z,44.70
2017-07-04T08:43:20.632Z,46.60
2017-07-04T08:45:50.730Z,51.50
2017-07-04T08:48:20.589Z,51.70
2017-07-04T08:50:50.161Z,53.40
2017-07-04T08:53:19.922Z,55.30
2017-07-04T08:55:49.500Z,56.40
2017-07-04T08:58:19.379Z,56.20
2017-07-04T09:00:48.976Z,57.50
2017-07-04T09:03:18.515Z,57.20
2017-07-04T09:05:48.075Z,57.50
2017-07-04T09:08:17.769Z,56.40
2017-07-04T09:10:47.724Z,56.70
2017-07-04T09:13:17.432Z,56.70
2017-07-04T09:15:47.932Z,56.80
2017-07-04T09:18:17.757Z,56.20
2017-07-04T09:20:47.518Z,56.60
2017-07-04T09:23:17.040Z,55.30
2017-07-04T09:25:55.407Z,54.60
2017-07-04T09:28:25.595Z,54.40
2017-07-04T09:30:55.219Z,55.60
2017-07-04T09:33:25.068Z,51.90
2017-07-04T09:35:54.757Z,52.40
2017-07-04T09:38:24.533Z,51.30
2017-07-04T09:40:54.490Z,51.10
2017-07-04T09:43:24.065Z,50.70
2017-07-04T09:45:53.761Z,48.10
2017-07-04T09:48:23.433Z,48.40
2017-07-04T09:50:53.347Z,49.50
2017-07-04T09:53:22.983Z,47.30
2017-07-04T09:56:23.835Z,49.00
2017-07-04T09:58:53.639Z,48.70
2017-07-04T10:01:23.183Z,41.60
2017-07-04T10:03:52.757Z,37.30
2017-07-04T10:06:22.359Z,40.10
2017-07-04T10:08:52.008Z,42.00
2017-07-04T10:11:21.919Z,41.10
2017-07-04T10:13:51.973Z,39.40
2017-07-04T10:16:21.610Z,37.90
2017-07-04T10:18:51.254Z,37.30
2017-07-04T10:21:20.872Z,37.10
2017-07-04T10:23:50.485Z,37.10
2017-07-04T10:26:21.023Z,35.80
2017-07-04T10:28:51.121Z,34.10
2017-07-04T10:31:20.846Z,33.10
2017-07-04T10:33:50.399Z,30.00
2017-07-04T10:36:19.996Z,32.50
2017-07-04T10:38:49.688Z,33.00
2017-07-04T10:41:19.640Z,28.90
2017-07-04T10:43:49.224Z,25.80
2017-07-04T10:46:18.781Z,25.80
2017-07-04T10:48:48.321Z,27.70
2017-07-04T10:51:17.823Z,26.90
2017-07-04T10:53:47.937Z,26.60
2017-07-04T10:56:17.778Z,27.00
2017-07-04T10:58:47.681Z,25.70
2017-07-04T11:01:17.602Z,26.80
2017-07-04T11:03:47.520Z,28.10
2017-07-04T11:06:17.902Z,29.20
2017-07-04T11:08:47.458Z,28.40
2017-07-04T11:11:18.921Z,28.20
2017-07-04T11:13:48.608Z,31.40
2017-07-04T11:16:18.906Z,28.90
2017-07-04T11:18:48.462Z,29.40
2017-07-04T11:21:17.963Z,30.00
2017-07-04T11:23:47.923Z,32.90
2017-07-04T11:26:17.679Z,31.10
2017-07-04T11:28:47.548Z,31.30
2017-07-04T11:31:17.141Z,32.50
2017-07-04T11:33:46.960Z,34.30
2017-07-04T11:36:16.865Z,36.50
2017-07-04T11:38:46.412Z,39.70
2017-07-04T11:41:16.519Z,39.60
2017-07-04T11:43:46.227Z,40.60
2017-07-04T11:46:15.932Z,41.50
2017-07-04T11:48:45.869Z,41.00
2017-07-04T11:51:15.969Z,39.70
2017-07-04T11:53:47.516Z,41.00
2017-07-04T11:56:17.055Z,41.00
2017-07-04T11:58:46.720Z,42.20
2017-07-04T12:01:16.330Z,42.90
2017-07-04T12:03:45.893Z,44.00
2017-07-04T12:06:16.199Z,44.60
2017-07-04T12:08:45.991Z,43.60
2017-07-04T12:11:16.006Z,44.60
2017-07-04T12:13:45.866Z,44.10
2017-07-04T12:16:15.438Z,44.00
2017-07-04T12:18:46.085Z,42.80
2017-07-04T12:21:15.988Z,43.30
2017-07-04T12:23:46.390Z,42.40
2017-07-04T12:26:16.309Z,42.90
2017-07-04T12:28:46.082Z,42.30
2017-07-04T12:31:16.054Z,42.60
2017-07-04T12:33:46.427Z,43.30
2017-07-04T12:36:17.102Z,43.70
2017-07-04T12:38:46.718Z,42.40
2017-07-04T12:41:16.374Z,42.10
2017-07-04T12:43:46.498Z,40.70
2017-07-04T12:46:16.324Z,42.20
2017-07-04T12:48:46.232Z,42.00
2017-07-04T12:51:16.032Z,43.40
2017-07-04T12:53:45.567Z,43.60
2017-07-04T12:56:15.248Z,42.70
2017-07-04T12:58:45.661Z,42.70
2017-07-04T13:01:15.495Z,43.80
2017-07-04T13:03:45.158Z,43.70
2017-07-04T13:06:15.705Z,43.40
2017-07-04T13:08:45.654Z,42.80
2017-07-04T13:11:15.520Z,41.80
2017-07-04T13:13:45.323Z,42.60
2017-07-04T13:16:16.519Z,41.60
2017-07-04T13:18:47.165Z,42.90
2017-07-04T13:21:16.800Z,42.30
2017-07-04T13:23:46.596Z,41.00
2017-07-04T13:26:16.218Z,41.70
2017-07-04T13:28:45.789Z,42.30
2017-07-04T13:31:15.656Z,43.60
2017-07-04T13:33:45.181Z,42.90
2017-07-04T13:36:16.450Z,41.30
2017-07-04T13:38:49.219Z,42.60
2017-07-04T13:41:22.068Z,42.30
2017-07-04T13:43:52.039Z,42.30
2017-07-04T13:46:22.385Z,42.80
2017-07-04T13:48:52.884Z,42.40
2017-07-04T13:51:22.402Z,44.30
2017-07-04T13:53:52.003Z,44.50
2017-07-04T13:56:21.882Z,43.40
2017-07-04T13:58:51.431Z,43.60
2017-07-04T14:01:21.731Z,45.30
2017-07-04T14:03:51.394Z,46.40
2017-07-04T14:06:21.054Z,46.60
2017-07-04T14:08:50.795Z,44.80
2017-07-04T14:11:20.341Z,44.70
2017-07-04T14:13:49.951Z,46.90
2017-07-04T14:16:19.564Z,45.60
2017-07-04T14:18:49.391Z,46.20
2017-07-04T14:21:18.947Z,47.60
2017-07-04T14:23:48.717Z,45.20
2017-07-04T14:26:18.497Z,47.00
2017-07-04T14:28:48.228Z,47.20
2017-07-04T14:31:18.052Z,47.20
2017-07-04T14:33:47.602Z,47.40
2017-07-04T14:36:17.158Z,46.30
2017-07-04T14:38:46.753Z,47.20
2017-07-04T14:41:16.324Z,46.50
2017-07-04T14:43:46.213Z,46.40
2017-07-04T14:46:16.972Z,46.00
2017-07-04T14:48:46.619Z,45.50
2017-07-04T14:51:16.519Z,45.30
2017-07-04T14:53:46.063Z,45.50
2017-07-04T14:56:15.667Z,46.10
2017-07-04T14:58:45.796Z,46.10
2017-07-04T15:01:16.924Z,47.30
2017-07-04T15:03:46.630Z,47.20
2017-07-04T15:06:18.915Z,47.10
2017-07-04T15:08:49.642Z,45.20
2017-07-04T15:11:19.524Z,47.30
2017-07-04T15:13:50.479Z,45.60
2017-07-04T15:16:20.126Z,45.30
2017-07-04T15:20:19.982Z,46.20
2017-07-04T15:22:50.344Z,45.20
2017-07-04T15:25:20.055Z,45.80
2017-07-04T15:27:50.394Z,45.90
2017-07-04T15:30:21.093Z,45.20
2017-07-04T15:32:50.907Z,45.00
2017-07-04T15:35:21.343Z,46.70
2017-07-04T15:37:50.983Z,45.00
2017-07-04T15:40:22.207Z,45.70
2017-07-04T15:42:51.857Z,44.90
2017-07-04T15:45:22.705Z,45.90
2017-07-04T15:47:52.547Z,44.00
2017-07-04T15:50:23.055Z,44.80
2017-07-04T15:52:53.415Z,44.60
2017-07-04T15:55:25.576Z,45.80
2017-07-04T15:57:55.446Z,45.40
2017-07-04T16:00:25.528Z,45.20
2017-07-04T16:02:56.785Z,45.90
2017-07-04T16:05:27.496Z,44.70
2017-07-04T16:07:59.401Z,45.30
2017-07-04T16:10:29.533Z,47.10
2017-07-04T16:12:59.325Z,46.80
2017-07-04T16:15:28.941Z,47.00
2017-07-04T16:17:58.518Z,47.10
2017-07-04T16:20:28.228Z,47.40
2017-07-04T16:22:58.350Z,46.60
2017-07-04T16:25:28.475Z,46.50
2017-07-04T16:27:58.333Z,46.90
2017-07-04T16:30:28.644Z,45.90
2017-07-04T16:32:59.230Z,46.60
2017-07-04T16:35:30.133Z,45.80
2017-07-04T16:38:00.297Z,46.60
2017-07-04T16:40:29.863Z,47.20
2017-07-04T16:42:59.759Z,46.60
2017-07-04T16:45:39.437Z,46.00
2017-07-04T16:48:09.069Z,46.80
2017-07-04T16:50:39.023Z,46.90
2017-07-04T16:53:15.369Z,47.30
2017-07-04T16:55:45.247Z,46.60
2017-07-04T16:58:17.939Z,47.10
2017-07-04T17:00:49.545Z,47.20
2017-07-04T17:03:22.266Z,47.30
2017-07-04T17:05:52.753Z,46.10
2017-07-04T17:08:23.791Z,46.20
2017-07-04T17:10:53.368Z,47.00
2017-07-04T17:13:23.379Z,46.60
2017-07-04T17:15:53.315Z,46.40
2017-07-04T17:20:30.822Z,46.20
2017-07-04T17:23:01.361Z,46.60
2017-07-04T17:25:31.480Z,47.40
2017-07-04T17:28:01.760Z,47.10
2017-07-04T17:30:31.591Z,45.30
2017-07-04T17:33:01.166Z,46.40
2017-07-04T17:35:30.940Z,47.60
2017-07-04T17:38:01.830Z,50.10
2017-07-04T17:40:31.378Z,50.10
2017-07-04T17:43:01.825Z,49.00
2017-07-04T17:45:31.461Z,49.20
2017-07-04T17:48:04.404Z,48.90
2017-07-04T17:50:34.753Z,51.50
2017-07-04T17:53:05.311Z,51.20
2017-07-04T17:55:35.026Z,51.10
2017-07-04T17:58:05.012Z,51.10
2017-07-04T18:00:35.057Z,51.30
2017-07-04T18:03:04.575Z,52.30
2017-07-04T18:05:34.202Z,52.60
2017-07-04T18:08:04.297Z,53.20
2017-07-04T18:10:35.855Z,54.20
2017-07-04T18:13:06.103Z,54.20
2017-07-04T18:15:36.396Z,54.10
2017-07-04T18:18:07.056Z,54.00
2017-07-04T18:20:37.085Z,54.60
2017-07-04T18:23:07.138Z,54.80
2017-07-04T18:25:37.455Z,54.50
2017-07-04T18:28:07.007Z,54.60
2017-07-04T18:30:37.567Z,54.90
2017-07-04T18:33:07.356Z,56.10
2017-07-04T18:35:37.155Z,55.30
2017-07-04T18:38:06.769Z,55.00
2017-07-04T18:40:36.600Z,55.20
2017-07-04T18:43:06.228Z,56.00
2017-07-04T18:45:35.786Z,55.90
2017-07-04T18:48:05.639Z,56.20
2017-07-04T18:50:35.380Z,56.80
2017-07-04T18:53:05.385Z,56.90
2017-07-04T18:55:35.012Z,57.60
2017-07-04T18:58:04.624Z,58.00
2017-07-04T19:00:37.407Z,58.20
2017-07-04T19:03:08.543Z,59.00
2017-07-04T19:05:38.701Z,58.40
2017-07-04T19:08:08.517Z,59.00
2017-07-04T19:10:39.455Z,59.40
2017-07-04T19:13:10.781Z,59.70
2017-07-04T19:15:42.318Z,60.00
2017-07-04T19:18:13.394Z,60.70
2017-07-04T19:20:44.074Z,60.70
2017-07-04T19:23:15.369Z,61.10
2017-07-04T19:25:46.950Z,61.00
2017-07-04T19:28:18.801Z,60.60
2017-07-04T19:30:50.588Z,60.40
2017-07-04T19:33:20.514Z,60.40
2017-07-04T19:35:50.156Z,60.60
2017-07-04T19:38:20.970Z,61.60
2017-07-04T19:40:50.961Z,61.50
2017-07-04T19:43:20.795Z,61.40
2017-07-04T19:45:50.911Z,61.10
2017-07-04T19:48:20.925Z,62.30
2017-07-04T19:50:51.944Z,63.60
2017-07-04T19:53:21.744Z,63.30
2017-07-04T19:55:51.712Z,64.30
2017-07-04T19:58:22.279Z,63.60
2017-07-04T20:00:52.303Z,64.10
2017-07-04T20:03:22.234Z,64.40
2017-07-04T20:05:52.267Z,64.40
2017-07-04T20:08:22.194Z,65.00
2017-07-04T20:10:51.751Z,65.30
2017-07-04T20:13:22.109Z,65.40
2017-07-04T20:15:51.712Z,65.60
2017-07-04T20:18:21.465Z,65.40
2017-07-04T20:20:51.063Z,65.60
2017-07-04T20:23:20.658Z,65.60
2017-07-04T20:25:50.513Z,65.70
2017-07-04T20:28:20.071Z,65.90
2017-07-04T20:30:49.676Z,66.10
2017-07-04T20:33:22.063Z,66.30
2017-07-04T20:35:51.611Z,66.20
2017-07-04T20:38:21.151Z,66.40
2017-07-04T20:40:50.659Z,66.40
2017-07-04T20:43:20.916Z,66.00
2017-07-04T20:45:50.440Z,65.90
2017-07-04T20:48:19.956Z,66.40
2017-07-04T20:50:49.549Z,66.80
2017-07-04T20:53:19.132Z,67.20
2017-07-04T20:55:49.708Z,67.70
2017-07-04T20:58:19.529Z,67.90
2017-07-04T21:00:49.064Z,68.90
2017-07-04T21:03:18.580Z,67.80
2017-07-04T21:05:48.148Z,67.50
2017-07-04T21:08:17.879Z,67.80
2017-07-04T21:10:47.933Z,67.60
2017-07-04T21:13:17.487Z,67.60
2017-07-04T21:15:47.348Z,67.80
2017-07-04T21:18:16.853Z,68.00
2017-07-04T21:20:46.404Z,68.30
2017-07-04T21:23:16.574Z,68.60
2017-07-04T21:25:47.507Z,68.30
2017-07-04T21:28:17.127Z,68.70
2017-07-04T21:30:47.519Z,68.80
2017-07-04T21:33:17.604Z,68.80
2017-07-04T21:35:47.474Z,68.10
2017-07-04T21:38:17.916Z,68.30
2017-07-04T21:40:47.969Z,68.40
2017-07-04T21:43:17.972Z,68.40
2017-07-04T21:45:47.578Z,68.60
2017-07-04T21:48:18.160Z,68.90
2017-07-04T21:50:48.417Z,68.80
2017-07-04T21:53:18.393Z,69.10
2017-07-04T21:55:48.483Z,69.40
2017-07-04T21:58:18.454Z,69.90
2017-07-04T22:00:48.339Z,70.00
2017-07-04T22:03:17.908Z,70.10
2017-07-04T22:05:47.432Z,70.10
2017-07-04T22:08:17.240Z,70.10
2017-07-04T22:10:46.724Z,70.00
2017-07-04T22:13:16.216Z,70.10
2017-07-04T22:15:45.736Z,70.10
2017-07-04T22:18:16.441Z,69.80
2017-07-04T22:20:46.967Z,69.80
2017-07-04T22:23:16.951Z,69.90
2017-07-04T22:25:46.717Z,70.20
2017-07-04T22:28:16.355Z,70.40
2017-07-04T22:30:46.296Z,70.30
2017-07-04T22:33:15.814Z,70.30
2017-07-04T22:35:45.319Z,70.40
2017-07-04T22:38:15.081Z,70.30
2017-07-04T22:40:44.567Z,70.10
2017-07-04T22:43:14.100Z,69.80
2017-07-04T22:45:43.676Z,69.90
2017-07-04T22:48:15.057Z,69.90
2017-07-04T22:50:45.385Z,70.00
2017-07-04T22:53:15.606Z,70.30
2017-07-04T22:55:45.441Z,70.70
2017-07-04T22:58:15.390Z,70.70
2017-07-04T23:00:45.720Z,70.80
2017-07-04T23:03:16.004Z,71.00
2017-07-04T23:05:45.928Z,71.60
2017-07-04T23:08:15.725Z,71.40
2017-07-04T23:10:45.755Z,71.30
2017-07-04T23:13:15.771Z,70.90
2017-07-04T23:15:45.573Z,71.50
2017-07-04T23:18:15.573Z,71.20
2017-07-04T23:20:45.836Z,71.20
2017-07-04T23:23:15.897Z,71.40
2017-07-04T23:25:47.059Z,70.80
2017-07-04T23:28:17.562Z,71.10
2017-07-04T23:30:48.152Z,72.00
2017-07-04T23:33:18.520Z,71.80
2017-07-04T23:35:48.545Z,72.10
2017-07-04T23:38:19.127Z,72.30
2017-07-04T23:40:49.202Z,72.30
2017-07-04T23:43:19.868Z,72.50
2017-07-04T23:45:49.851Z,72.50
2017-07-04T23:48:19.984Z,72.50
2017-07-04T23:50:50.344Z,72.40
2017-07-04T23:53:20.383Z,72.50
2017-07-04T23:55:50.235Z,72.60
2017-07-04T23:58:19.851Z,72.20
